Latest Coastal Weather Observations for Sydney Harbour

IDN60701

Issued at 11:35 pm EST Monday 1 September 2014 (issued every 10 minutes, with the page automatically refreshed every 10 minutes)

About coastal observations | Map of coastal stations | Coastal observations for NSW | Marine services | Other Formats
Station Details ID: 066196 Name: WEDDING CAKE WEST Lat: -33.84 Lon: 151.26 Height: 6.0 m
Data from the previous 72 hours. | See also: Recent months for locations in New South Wales
Date/Time
EST
Temp

°C
Wind Pressure Rain
since 9am
mm
Weather Cloud Vis
km
Sea
Height
m
Swell
Dir
 
Speed
knots
Gust
knots
hPa Trend Height
m
Period
s
Dir
01/11:30pm 18.1 NNW 5 6 - - - - - - - - - -
01/11:00pm 18.3 NNW 6 7 - - - - - - - - - -
01/10:30pm 19.2 NNW 9 11 - - - - - - - - - -
01/10:00pm 18.8 NNW 10 12 - - - - - - - - - -
01/09:30pm 18.8 NNW 7 11 - - - - - - - - - -
01/09:00pm 19.1 NNW 9 12 - - - - - - - - - -
01/08:30pm 19.3 NNW 9 13 - - - - - - - - - -
01/08:00pm 19.7 NNW 9 12 - - - - - - - - - -
01/07:30pm 19.5 NNW 8 10 - - - - - - - - - -
01/07:00pm 18.6 NNW 6 7 - - - - - - - - - -
01/06:30pm 18.6 N 6 7 - - - - - - - - - -
01/06:00pm 18.4 N 7 8 - - - - - - - - - -
01/05:30pm 18.4 NNE 9 11 - - - - - - - - - -
01/05:00pm 18.7 NNE 12 14 - - - - - - - - - -
01/04:30pm 18.4 NNE 14 17 - - - - - - - - - -
01/04:00pm 18.7 NNE 16 18 - - - - - - - - - -
01/03:30pm 18.9 NNE 9 11 - - - - - - - - - -
01/03:00pm 19.3 ENE 10 11 - - - - - - - - - -
01/02:30pm 19.0 ENE 11 13 - - - - - - - - - -
01/02:00pm 18.5 ENE 11 13 - - - - - - - - - -
01/01:30pm 18.7 ENE 9 11 - - - - - - - - - -
01/01:00pm 18.7 E 7 9 - - - - - - - - - -
01/12:30pm 19.4 SW 3 4 - - - - - - - - - -
01/12:00pm 17.9 SW 3 5 - - - - - - - - - -
01/11:30am 18.4 SW 4 4 - - - - - - - - - -
01/11:00am 17.0 SW 2 3 - - - - - - - - - -
01/10:30am 15.8 SW 4 5 - - - - - - - - - -
01/10:00am 14.5 SW 4 5 - - - - - - - - - -
01/09:30am 14.3 SW 4 5 - - - - - - - - - -
01/09:00am 13.5 WSW 6 8 - - - - - - - - - -
01/08:30am 13.1 SW 10 13 - - - - - - - - - -
01/08:00am 12.3 NNW 4 6 - - - - - - - - - -
01/07:30am 11.5 NNW 4 5 - - - - - - - - - -
01/07:00am 11.5 WNW 5 7 - - - - - - - - - -
01/06:30am 11.8 W 4 6 - - - - - - - - - -
01/06:00am 12.2 W 4 5 - - - - - - - - - -
01/05:30am 12.6 W 8 10 - - - - - - - - - -
01/05:00am 12.9 WNW 8 9 - - - - - - - - - -
01/04:30am 13.8 NW 5 7 - - - - - - - - - -
01/04:00am 13.9 WNW 6 7 - - - - - - - - - -
01/03:30am 13.5 W 7 9 - - - - - - - - - -
01/03:00am 14.1 CALM 0 0 - - - - - - - - - -
01/02:30am 13.8 CALM 0 0 - - - - - - - - - -
01/02:00am 14.1 CALM 0 0 - - - - - - - - - -
01/01:30am 13.7 CALM 0 0 - - - - - - - - - -
01/01:00am 13.8 CALM 0 0 - - - - - - - - - -
01/12:30am 14.5 SW 2 4 - - - - - - - - - -
01/12:00am 14.5 SW 4 6 - - - - - - - - - -
 
Date/Time
EST
Temp

°C
Wind Pressure Rain
since 9am
mm
Weather Cloud Vis
km
Sea
Height
m
Swell
Dir
 
Speed
knots
Gust
knots
hPa Trend Height
m
Period
s
Dir
31/11:30pm 14.9 SW 4 6 - - - - - - - - - -
31/11:00pm 14.9 SSW 3 5 - - - - - - - - - -
31/10:30pm 14.7 N 4 6 - - - - - - - - - -
31/10:00pm 14.8 ENE 3 5 - - - - - - - - - -
31/09:30pm 14.9 CALM 0 0 - - - - - - - - - -
31/09:00pm 15.2 CALM 0 0 - - - - - - - - - -
31/08:30pm 16.1 ENE 3 4 - - - - - - - - - -
31/08:00pm 16.2 ENE 4 6 - - - - - - - - - -
31/07:30pm 16.2 ENE 5 7 - - - - - - - - - -
31/07:00pm 16.5 E 7 8 - - - - - - - - - -
31/06:30pm 16.5 E 7 9 - - - - - - - - - -
31/06:00pm 16.5 E 7 9 - - - - - - - - - -
31/05:30pm 16.6 ESE 7 9 - - - - - - - - - -
31/05:00pm 17.4 ESE 7 10 - - - - - - - - - -
31/04:30pm 17.9 ESE 7 9 - - - - - - - - - -
31/04:00pm 17.9 SE 8 10 - - - - - - - - - -
31/03:30pm 17.9 SE 10 12 - - - - - - - - - -
31/03:00pm 17.7 SE 9 11 - - - - - - - - - -
31/02:30pm 17.6 SE 9 12 - - - - - - - - - -
31/02:00pm 17.5 SE 10 12 - - - - - - - - - -
31/01:30pm 17.7 SE 11 12 - - - - - - - - - -
31/01:00pm 17.9 SE 10 11 - - - - - - - - - -
31/12:30pm 18.3 S 3 8 - - - - - - - - - -
31/12:00pm 17.3 SW 4 5 - - - - - - - - - -
31/11:30am 16.9 SW 6 7 - - - - - - - - - -
31/11:00am 16.5 SW 6 8 - - - - - - - - - -
31/10:30am 16.0 WSW 9 11 - - - - - - - - - -
31/10:00am 15.6 W 11 13 - - - - - - - - - -
31/09:30am 14.9 W 10 13 - - - - - - - - - -
31/09:00am 14.3 W 12 15 - - - - - - - - - -
31/08:30am 14.1 W 13 16 - - - - - - - - - -
31/08:00am 13.8 W 14 17 - - - - - - - - - -
31/07:30am 13.3 W 14 16 - - - - - - - - - -
31/07:00am 13.0 W 13 17 - - - - - - - - - -
31/06:30am 12.8 W 13 15 - - - - - - - - - -
31/06:00am 12.9 W 14 17 - - - - - - - - - -
31/05:30am 13.0 W 14 19 - - - - - - - - - -
31/05:00am 13.1 W 13 16 - - - - - - - - - -
31/04:30am 13.2 W 15 19 - - - - - - - - - -
31/04:00am 13.0 W 16 19 - - - - - - - - - -
31/03:30am 13.1 W 15 18 - - - - - - - - - -
31/03:00am 13.5 W 12 15 - - - - - - - - - -
31/02:30am 13.8 WSW 11 14 - - - - - - - - - -
31/02:00am 13.8 WSW 10 13 - - - - - - - - - -
31/01:30am 14.1 WSW 11 15 - - - - - - - - - -
31/01:00am 14.1 WSW 11 15 - - - - - - - - - -
31/12:30am 14.4 WSW 13 16 - - - - - - - - - -
31/12:00am 14.4 WSW 15 19 - - - - - - - - - -
 
Date/Time
EST
Temp

°C
Wind Pressure Rain
since 9am
mm
Weather Cloud Vis
km
Sea
Height
m
Swell
Dir
 
Speed
knots
Gust
knots
hPa Trend Height
m
Period
s
Dir
30/11:30pm 14.1 SW 16 19 - - - - - - - - - -
30/11:00pm 14.7 SW 15 18 - - - - - - - - - -
30/10:30pm 14.4 SW 17 21 - - - - - - - - - -
30/10:00pm 14.5 SW 18 23 - - - - - - - - - -
30/09:30pm 14.5 SW 19 22 - - - - - - - - - -
30/09:00pm 14.0 SW 17 20 - - - - - - - - - -
30/08:30pm 14.4 SW 17 21 - - - - - - - - - -
30/08:00pm 14.8 SW 16 20 - - - - - - - - - -
30/07:30pm 15.0 SW 17 20 - - - - - - - - - -
30/07:00pm 14.6 SW 19 24 - - - - - - - - - -
30/06:30pm 14.9 SW 16 19 - - - - - - - - - -
30/06:00pm 14.9 SW 20 25 - - - - - - - - - -
30/05:30pm 14.9 SW 17 20 - - - - - - - - - -
30/05:00pm 14.9 SW 20 26 - - - - - - - - - -
30/04:30pm 15.2 SW 21 26 - - - - - - - - - -
30/04:00pm 15.3 SSW 22 27 - - - - - - - - - -
30/03:30pm 15.1 SSW 21 28 - - - - - - - - - -
30/03:00pm 15.0 SSW 19 25 - - - - - - - - - -
30/02:30pm 15.2 SSW 21 28 - - - - - - - - - -
30/02:00pm 15.5 SSW 20 25 - - - - - - - - - -
30/01:45pm 15.4 SSW 19 29 - - - - - - - - - -
30/01:30pm 15.3 SSW 21 24 - - - - - - - - - -
30/01:00pm 15.0 SSW 20 25 - - - - - - - - - -
30/12:30pm 14.4 SW 21 27 - - - - - - - - - -
30/12:00pm 14.8 SSW 21 27 - - - - - - - - - -
30/11:30am 14.7 SSW 22 28 - - - - - - - - - -
30/11:00am 14.3 SW 20 27 - - - - - - - - - -
30/10:30am 13.7 SW 20 28 - - - - - - - - - -
30/10:00am 13.2 SW 19 24 - - - - - - - - - -
30/09:30am 13.0 SW 19 24 - - - - - - - - - -
30/09:00am 12.9 SW 21 25 - - - - - - - - - -
30/08:30am 12.7 SW 21 27 - - - - - - - - - -
30/08:00am 13.1 SW 21 27 - - - - - - - - - -
30/07:30am 13.1 SW 21 24 - - - - - - - - - -
30/07:00am 13.3 SW 21 24 - - - - - - - - - -
30/06:30am 13.5 SW 22 27 - - - - - - - - - -
30/06:00am 13.7 SW 22 30 - - - - - - - - - -
30/05:30am 14.1 SSW 22 29 - - - - - - - - - -
30/05:00am 13.9 SW 26 32 - - - - - - - - - -
30/04:30am 13.6 SSW 26 32 - - - - - - - - - -
30/04:17am 13.5 SSW 25 35 - - - - - - - - - -
30/04:00am 13.8 SSW 27 36 - - - - - - - - - -
30/03:30am 14.1 SSW 23 30 - - - - - - - - - -
30/03:00am 14.6 SW 24 29 - - - - - - - - - -
30/02:30am 14.7 SSW 23 28 - - - - - - - - - -
30/02:00am 14.6 SSW 21 26 - - - - - - - - - -
30/01:30am 13.9 SW 21 27 - - - - - - - - - -
30/01:17am 14.0 SSW 21 34 - - - - - - - - - -
30/01:00am 14.0 SW 22 29 - - - - - - - - - -
30/12:32am 13.6 SSW 21 31 - - - - - - - - - -
30/12:30am 14.0 SSW 22 31 - - - - - - - - - -
30/12:01am 14.3 SSW 23 33 - - - - - - - - - -
30/12:00am 14.5 SSW 24 33 - - - - - - - - - -

Other Formats:

Comma delimited format used in spreadsheet applications
http://www.bom.gov.au/fwo/IDN60701/IDN60701.95766.axf

JavaScript Object Notation format (JSON) in row-major order
http://www.bom.gov.au/fwo/IDN60701/IDN60701.95766.json